• Join FlightAware (Why Join?)
  • Login
  • US Flag 
08:15AM EDT


 

Airport Tracker/Info


-or-


 

Live Flight TrackerFlight Track Log ✈ WIG1044 ✈ 08-Aug-2014 ✈ KMHT - KBGR

Flight Track Log - Related Links

Times and Time Zones

All times are in EDT time to prevent confusion due to time zone crossing. See the WIG1044 flight status page for this flight to view local times or setup timezone preferences in your user account.

Time Position Orientation Groundspeed Altitude Reporting Facility
EDT Latitude Longitude Course Direction KTS MPH feet Rate Location/Type
06:58AM 42.9500 -71.4167 56° Northeast 133 153 1,000  Level KA90
06:58AM 42.9667 -71.3833 56° Northeast 133 153 2,300 1,140 Climbing KA90
06:59AM 43.0000 -71.3500 36° Northeast 170 196 3,200 900 Climbing KA90
07:00AM 43.0333 -71.3000 48° Northeast 174 200 4,200 1,080 Climbing KA90
07:01AM 43.0667 -71.2500 48° Northeast 175 201 5,400 1,020 Climbing KA90
07:02AM 43.1000 -71.2167 36° Northeast 168 193 6,300 840 Climbing KA90
07:03AM 43.1333 -71.1667 48° Northeast 177 204 7,100 840 Climbing KA90
07:04AM 43.1667 -71.1167 48° Northeast 179 206 8,000 900 Climbing KA90
07:05AM 43.2000 -71.0667 48° Northeast 179 206 9,000 540 Climbing KA90
07:06AM 43.2500 -71.0167 36° Northeast 200 230 9,100  Climbing KA90
07:07AM 43.2833 -70.9500 56° Northeast 214 246 9,100 -60 Level KA90
07:09AM 43.3397 -70.8861 39° Northeast 205 236 9,000 -60 Descending Boston Center
07:10AM 43.3803 -70.8303 45° Northeast 205 236 9,000  Level Boston Center
07:11AM 43.4231 -70.7744 43° Northeast 205 236 9,000  Level Boston Center
07:12AM 43.4642 -70.7197 44° Northeast 206 237 9,000  Level Boston Center
07:13AM 43.5042 -70.6656 44° Northeast 204 235 9,000  Level Boston Center
07:14AM 43.5469 -70.6064 45° Northeast 204 235 9,000  Level Boston Center
07:15AM 43.5869 -70.5517 45° Northeast 203 234 9,000  Level Boston Center
07:16AM 43.6272 -70.4964 45° Northeast 203 234 9,000  Level Boston Center
07:17AM 43.6675 -70.4417 44° Northeast 203 234 9,000  Level Boston Center
07:18AM 43.7094 -70.3831 45° Northeast 202 232 9,000  Level Boston Center
07:19AM 43.7489 -70.3275 45° Northeast 202 232 9,000  Level Boston Center
07:20AM 43.7900 -70.2739 43° Northeast 203 234 9,000  Level Boston Center
07:21AM 43.8311 -70.2133 47° Northeast 203 234 9,000  Level Boston Center
07:22AM 43.8719 -70.1589 44° Northeast 204 235 9,000  Level Boston Center
07:23AM 43.9114 -70.1061 44° Northeast 202 232 9,000  Level Boston Center
07:24AM 43.9547 -70.0450 45° Northeast 206 237 9,000  Level Boston Center
07:25AM 43.9944 -69.9892 45° Northeast 203 234 9,000  Level Boston Center
07:26AM 44.0342 -69.9350 44° Northeast 202 232 9,000  Level Boston Center
07:27AM 44.0742 -69.8775 46° Northeast 205 236 9,000  Level Boston Center
07:28AM 44.1172 -69.8158 46° Northeast 206 237 9,000  Level Boston Center
07:29AM 44.1567 -69.7575 47° Northeast 207 238 9,000  Level Boston Center
07:30AM 44.1983 -69.7011 44° Northeast 207 238 9,000  Level Boston Center
07:31AM 44.2386 -69.6433 46° Northeast 208 239 9,000  Level Boston Center
07:32AM 44.2800 -69.5861 45° Northeast 208 239 9,000  Level Boston Center
07:33AM 44.3211 -69.5281 45° Northeast 208 239 9,000  Level Boston Center
07:34AM 44.3614 -69.4694 46° Northeast 208 239 9,000  Level Boston Center
07:35AM 44.4022 -69.4100 46° Northeast 209 241 9,000  Level Boston Center
07:36AM 44.4425 -69.3503 47° Northeast 209 241 9,000  Level Boston Center
07:37AM 44.4781 -69.2836 53° Northeast 210 242 9,000 -300 Level Boston Center
07:38AM 44.5125 -69.2128 56° Northeast 214 246 8,400 -780 Descending Boston Center
07:39AM 44.5500 -69.1394 54° Northeast 226 260 7,500 -1,020 Descending Boston Center
07:40AM 44.5897 -69.0672 52° Northeast 231 266 6,400 -1,140 Descending Boston Center
07:41AM 44.6297 -68.9953 52° Northeast 231 266 5,200 -1,380 Descending Boston Center
07:42AM 44.6781 -68.9097 52° Northeast 232 267 3,600 -1,560 Descending Boston Center
07:43AM 44.7186 -68.8436 49° Northeast 229 264 2,100 -840 Descending Boston Center
07:44AM 44.7489 -68.7950 49° Northeast 180 207 1,900 -600 Descending Boston Center
07:45AM 44.7786 -68.7867 11° North 128 147 900 -840 Descending Boston Center
07:46AM 44.8019 -68.8172 317° Northwest 114 131 300 -600 Descending Boston Center